메인 페이지
METAR-TAF:

METAR-TAF

공항 :

뉴올리언스, 루이지애나, 미국

위도: 30-02-58N, 경도: 090-01-44W, 고도: 2m

현재 날씨관측

예보는 16분 전, 01:53시(UTC)에 발표되었습니다.
남동7kt
온도 28°C
습도 70%
기압 1018 hPa
시정: 16.1km
맑음

METAR: KNEW 250153Z 13007KT 10SM CLR 28/22 A3007 RMK AO2 SLP174 T02780217

시각: 21:09 (02:09 UTC)

예보

예보는 2 시간 42분 전, 23:27시(UTC)에 발표되었습니다.
예보 대상 시간: 25일 00시부터 25일 24시까지 (UTC)
10kt
시정: 10km
고도 200ft 상공 구름 조금
25일 0400시부터 (UTC)
남남동6kt
시정: 10km
맑음
25일 1100시부터 (UTC)
여러 방향의 바람 4kt
시정: 10km
고도 4000ft 상공 구름 보통
25일 1500시부터 (UTC)
남동6kt
시정: 10km
고도 20000ft 상공 구름 보통

TAF: KNEW 242327Z 2500/2524 10010KT P6SM FEW002 FM250400 15006KT P6SM SKC FM251100 VRB04KT P6SM SCT040 FM251500 13006KT P6SM SCT200

4,000개 이상의 공항 관측 자료 및 예보 (METAR 및 TAF 보고).

지도상에서 검색 가능한 기상관측소가 노란 점과 빨간 점으로 표시되어 있습니다.

기상관측소 명을 보려면 표시 위로 마우스를 이동하세요.

날씨 관측과 예보를 보려면 클릭하세요.

지도 변경 : 확대하려면 엑스 표시가 있는 녹색 버튼, 축소하려면 빼기 표시가 있는 녹색 버튼, 다음 페이지의 지도를 보려면 녹색 화살표를 클릭하세요.


METAR-TAF: